sensor_id;sensor_type;location;lat;lon;timestamp;pressure;altitude;pressure_sealevel;temperature;humidity
71567;BME280;59403;47.456;19.120;2023-09-19T00:00:56;99752.47;;;21.96;78.17
71567;BME280;59403;47.456;19.120;2023-09-19T00:03:25;99746.75;;;21.92;78.00
71567;BME280;59403;47.456;19.120;2023-09-19T00:05:54;99746.69;;;21.87;78.47
71567;BME280;59403;47.456;19.120;2023-09-19T00:08:21;99745.62;;;21.88;78.71
71567;BME280;59403;47.456;19.120;2023-09-19T00:10:50;99757.72;;;21.86;78.58
71567;BME280;59403;47.456;19.120;2023-09-19T00:13:19;99751.75;;;21.84;79.07
71567;BME280;59403;47.456;19.120;2023-09-19T00:15:47;99749.06;;;21.84;79.33
71567;BME280;59403;47.456;19.120;2023-09-19T00:18:15;99741.44;;;21.81;79.31
71567;BME280;59403;47.456;19.120;2023-09-19T00:20:44;99748.16;;;21.78;79.71
71567;BME280;59403;47.456;19.120;2023-09-19T00:23:13;99744.97;;;21.81;79.65
71567;BME280;59403;47.456;19.120;2023-09-19T00:25:39;99741.69;;;21.79;79.92
71567;BME280;59403;47.456;19.120;2023-09-19T00:28:07;99747.53;;;21.76;80.60
71567;BME280;59403;47.456;19.120;2023-09-19T00:30:35;99748.97;;;21.79;80.48
71567;BME280;59403;47.456;19.120;2023-09-19T00:33:04;99743.78;;;21.77;80.12
71567;BME280;59403;47.456;19.120;2023-09-19T00:35:33;99739.47;;;21.76;80.14
71567;BME280;59403;47.456;19.120;2023-09-19T00:38:01;99740.28;;;21.77;80.41
71567;BME280;59403;47.456;19.120;2023-09-19T00:40:29;99738.38;;;21.77;80.25
71567;BME280;59403;47.456;19.120;2023-09-19T00:42:57;99738.38;;;21.77;80.41
71567;BME280;59403;47.456;19.120;2023-09-19T00:45:25;99735.16;;;21.75;80.58
71567;BME280;59403;47.456;19.120;2023-09-19T00:47:54;99734.81;;;21.72;81.04
71567;BME280;59403;47.456;19.120;2023-09-19T00:50:23;99732.34;;;21.70;81.27
71567;BME280;59403;47.456;19.120;2023-09-19T00:52:53;99736.34;;;21.68;82.05
71567;BME280;59403;47.456;19.120;2023-09-19T00:55:23;99737.66;;;21.65;82.42
71567;BME280;59403;47.456;19.120;2023-09-19T00:57:51;99736.84;;;21.65;82.13
71567;BME280;59403;47.456;19.120;2023-09-19T01:00:18;99734.63;;;21.62;82.54
71567;BME280;59403;47.456;19.120;2023-09-19T01:05:21;99731.69;;;21.47;84.75
71567;BME280;59403;47.456;19.120;2023-09-19T01:07:49;99731.09;;;21.44;84.23
71567;BME280;59403;47.456;19.120;2023-09-19T01:10:19;99737.56;;;21.43;84.04
71567;BME280;59403;47.456;19.120;2023-09-19T01:13:05;99739.69;;;21.41;84.29
71567;BME280;59403;47.456;19.120;2023-09-19T01:15:43;99738.59;;;21.42;84.53
71567;BME280;59403;47.456;19.120;2023-09-19T01:18:21;99740.75;;;21.40;85.42
71567;BME280;59403;47.456;19.120;2023-09-19T01:20:57;99732.88;;;21.39;85.56
71567;BME280;59403;47.456;19.120;2023-09-19T01:23:42;99738.53;;;21.37;85.55
71567;BME280;59403;47.456;19.120;2023-09-19T01:26:28;99743.91;;;21.37;85.61
71567;BME280;59403;47.456;19.120;2023-09-19T01:29:16;99736.91;;;21.36;85.55
71567;BME280;59403;47.456;19.120;2023-09-19T01:31:51;99733.13;;;21.37;86.20
71567;BME280;59403;47.456;19.120;2023-09-19T01:34:19;99735.81;;;21.37;86.40
71567;BME280;59403;47.456;19.120;2023-09-19T01:36:46;99733.13;;;21.37;86.40
71567;BME280;59403;47.456;19.120;2023-09-19T01:39:14;99736.91;;;21.36;85.98
71567;BME280;59403;47.456;19.120;2023-09-19T01:42:07;99730.09;;;21.34;86.11
71567;BME280;59403;47.456;19.120;2023-09-19T01:44:44;99723.34;;;21.31;86.79
71567;BME280;59403;47.456;19.120;2023-09-19T01:47:25;99721.78;;;21.35;86.52
71567;BME280;59403;47.456;19.120;2023-09-19T01:49:59;99721.56;;;21.37;86.27
71567;BME280;59403;47.456;19.120;2023-09-19T01:52:31;99717.47;;;21.34;86.52
71567;BME280;59403;47.456;19.120;2023-09-19T01:55:08;99730.09;;;21.34;86.46
71567;BME280;59403;47.456;19.120;2023-09-19T01:57:42;99734.13;;;21.31;86.99
71567;BME280;59403;47.456;19.120;2023-09-19T02:00:12;99726.63;;;21.33;86.74
71567;BME280;59403;47.456;19.120;2023-09-19T02:02:44;99730.84;;;21.29;86.93
71567;BME280;59403;47.456;19.120;2023-09-19T02:05:13;99723.47;;;21.25;87.54
71567;BME280;59403;47.456;19.120;2023-09-19T02:07:48;99724.22;;;21.20;87.68
71567;BME280;59403;47.456;19.120;2023-09-19T02:10:15;99726.31;;;21.18;88.11
71567;BME280;59403;47.456;19.120;2023-09-19T02:12:43;99726.56;;;21.17;88.32
71567;BME280;59403;47.456;19.120;2023-09-19T02:15:10;99731.12;;;21.16;88.03
71567;BME280;59403;47.456;19.120;2023-09-19T02:17:37;99723.28;;;21.15;87.98
71567;BME280;59403;47.456;19.120;2023-09-19T02:20:07;99716.78;;;21.11;88.39
71567;BME280;59403;47.456;19.120;2023-09-19T02:22:35;99725.56;;;21.06;89.16
71567;BME280;59403;47.456;19.120;2023-09-19T02:25:04;99722.88;;;21.06;88.96
71567;BME280;59403;47.456;19.120;2023-09-19T02:27:32;99719.34;;;21.06;89.26
71567;BME280;59403;47.456;19.120;2023-09-19T02:29:59;99721.00;;;21.07;89.10
71567;BME280;59403;47.456;19.120;2023-09-19T02:32:30;99713.19;;;21.05;88.96
71567;BME280;59403;47.456;19.120;2023-09-19T02:34:57;99709.91;;;21.03;89.00
71567;BME280;59403;47.456;19.120;2023-09-19T02:37:26;99723.84;;;21.00;89.32
71567;BME280;59403;47.456;19.120;2023-09-19T02:39:53;99725.72;;;21.00;89.68
71567;BME280;59403;47.456;19.120;2023-09-19T02:42:20;99727.59;;;20.99;89.69
71567;BME280;59403;47.456;19.120;2023-09-19T02:44:47;99728.03;;;20.96;89.79
71567;BME280;59403;47.456;19.120;2023-09-19T02:47:13;99729.31;;;20.94;89.96
71567;BME280;59403;47.456;19.120;2023-09-19T02:49:42;99728.88;;;20.85;90.44
71567;BME280;59403;47.456;19.120;2023-09-19T02:52:09;99730.53;;;20.86;91.17
71567;BME280;59403;47.456;19.120;2023-09-19T02:54:38;99737.56;;;20.87;91.07
71567;BME280;59403;47.456;19.120;2023-09-19T02:57:05;99728.88;;;20.85;91.05
71567;BME280;59403;47.456;19.120;2023-09-19T02:59:33;99724.81;;;20.83;91.59
71567;BME280;59403;47.456;19.120;2023-09-19T03:02:03;99721.06;;;20.84;91.29
71567;BME280;59403;47.456;19.120;2023-09-19T03:04:30;99717.00;;;20.81;91.17
71567;BME280;59403;47.456;19.120;2023-09-19T03:06:58;99709.13;;;20.80;91.25
71567;BME280;59403;47.456;19.120;2023-09-19T03:09:26;99717.44;;;20.78;91.16
71567;BME280;59403;47.456;19.120;2023-09-19T03:11:54;99706.81;;;20.72;91.47
71567;BME280;59403;47.456;19.120;2023-09-19T03:14:22;99708.94;;;20.70;91.46
71567;BME280;59403;47.456;19.120;2023-09-19T03:16:49;99720.44;;;20.65;91.91
71567;BME280;59403;47.456;19.120;2023-09-19T03:19:17;99716.81;;;20.60;92.42
71567;BME280;59403;47.456;19.120;2023-09-19T03:21:46;99723.50;;;20.57;92.93
71567;BME280;59403;47.456;19.120;2023-09-19T03:24:16;99711.22;;;20.50;93.76
71567;BME280;59403;47.456;19.120;2023-09-19T03:26:43;99712.59;;;20.52;93.28
71567;BME280;59403;47.456;19.120;2023-09-19T03:29:12;99720.13;;;20.50;93.46
71567;BME280;59403;47.456;19.120;2023-09-19T03:31:39;99719.87;;;20.52;93.21
71567;BME280;59403;47.456;19.120;2023-09-19T03:34:06;99719.63;;;20.53;92.88
71567;BME280;59403;47.456;19.120;2023-09-19T03:36:33;99721.50;;;20.53;93.12
71567;BME280;59403;47.456;19.120;2023-09-19T03:39:00;99726.28;;;20.51;93.36
71567;BME280;59403;47.456;19.120;2023-09-19T03:41:30;99721.41;;;20.48;94.15
71567;BME280;59403;47.456;19.120;2023-09-19T03:43:57;99718.72;;;20.48;93.96
71567;BME280;59403;47.456;19.120;2023-09-19T03:46:25;99722.69;;;20.45;93.92
71567;BME280;59403;47.456;19.120;2023-09-19T03:48:52;99729.13;;;20.44;93.97
71567;BME280;59403;47.456;19.120;2023-09-19T03:51:20;99726.69;;;20.43;94.33
71567;BME280;59403;47.456;19.120;2023-09-19T03:53:47;99725.75;;;20.37;94.96
71567;BME280;59403;47.456;19.120;2023-09-19T03:56:14;99730.28;;;20.37;94.94
71567;BME280;59403;47.456;19.120;2023-09-19T03:58:42;99731.59;;;20.34;95.14
71567;BME280;59403;47.456;19.120;2023-09-19T04:01:08;99734.28;;;20.34;95.32
71567;BME280;59403;47.456;19.120;2023-09-19T04:03:37;99733.47;;;20.33;96.01
71567;BME280;59403;47.456;19.120;2023-09-19T04:06:13;99732.19;;;20.36;96.30
71567;BME280;59403;47.456;19.120;2023-09-19T04:08:40;99726.56;;;20.38;96.50
71567;BME280;59403;47.456;19.120;2023-09-19T04:11:07;99734.87;;;20.36;97.16
71567;BME280;59403;47.456;19.120;2023-09-19T04:13:34;99732.44;;;20.35;97.70
71567;BME280;59403;47.456;19.120;2023-09-19T04:16:00;99743.06;;;20.41;97.69
71567;BME280;59403;47.456;19.120;2023-09-19T04:18:29;99737.19;;;20.44;97.63
71567;BME280;59403;47.456;19.120;2023-09-19T04:20:59;99734.25;;;20.46;97.51
71567;BME280;59403;47.456;19.120;2023-09-19T04:23:28;99739.41;;;20.47;97.53
71567;BME280;59403;47.456;19.120;2023-09-19T04:25:55;99753.44;;;20.49;97.55
71567;BME280;59403;47.456;19.120;2023-09-19T04:28:22;99756.13;;;20.49;97.68
71567;BME280;59403;47.456;19.120;2023-09-19T04:30:49;99756.97;;;20.50;97.81
71567;BME280;59403;47.456;19.120;2023-09-19T04:36:19;99758.59;;;20.51;99.73
71567;BME280;59403;47.456;19.120;2023-09-19T04:38:48;99758.59;;;20.51;98.96
71567;BME280;59403;47.456;19.120;2023-09-19T04:41:15;99762.09;;;20.51;99.04
71567;BME280;59403;47.456;19.120;2023-09-19T04:43:42;99769.09;;;20.52;99.44
71567;BME280;59403;47.456;19.120;2023-09-19T04:46:10;99763.50;;;20.54;99.60
71567;BME280;59403;47.456;19.120;2023-09-19T04:48:39;99768.66;;;20.55;99.83
71567;BME280;59403;47.456;19.120;2023-09-19T04:51:07;99769.25;;;20.57;99.67
71567;BME280;59403;47.456;19.120;2023-09-19T04:53:35;99768.16;;;20.58;100.00
71567;BME280;59403;47.456;19.120;2023-09-19T04:56:02;99768.75;;;20.60;100.00
71567;BME280;59403;47.456;19.120;2023-09-19T04:58:29;99770.38;;;20.61;100.00
71567;BME280;59403;47.456;19.120;2023-09-19T05:00:56;99777.41;;;20.62;100.00
71567;BME280;59403;47.456;19.120;2023-09-19T05:03:29;99780.22;;;20.67;99.88
71567;BME280;59403;47.456;19.120;2023-09-19T05:05:56;99775.62;;;20.68;100.00
71567;BME280;59403;47.456;19.120;2023-09-19T05:08:23;99780.22;;;20.67;100.00
71567;BME280;59403;47.456;19.120;2023-09-19T05:10:52;99777.88;;;20.71;99.92
71567;BME280;59403;47.456;19.120;2023-09-19T05:13:21;99789.66;;;20.70;99.89
71567;BME280;59403;47.456;19.120;2023-09-19T05:15:48;99792.12;;;20.71;99.18
71567;BME280;59403;47.456;19.120;2023-09-19T05:18:16;99788.03;;;20.69;97.61
71567;BME280;59403;47.456;19.120;2023-09-19T05:20:42;99792.75;;;20.62;97.88
71567;BME280;59403;47.456;19.120;2023-09-19T05:23:09;99800.81;;;20.62;98.44
71567;BME280;59403;47.456;19.120;2023-09-19T05:25:39;99798.84;;;20.57;98.10
71567;BME280;59403;47.456;19.120;2023-09-19T05:28:09;99802.56;;;20.56;97.80
71567;BME280;59403;47.456;19.120;2023-09-19T05:30:37;99815.66;;;20.53;98.05
71567;BME280;59403;47.456;19.120;2023-09-19T05:33:06;99814.97;;;20.46;98.95
71567;BME280;59403;47.456;19.120;2023-09-19T05:35:34;99825.50;;;20.47;98.58
71567;BME280;59403;47.456;19.120;2023-09-19T05:38:02;99827.97;;;20.37;98.73
71567;BME280;59403;47.456;19.120;2023-09-19T05:40:31;99817.69;;;20.34;98.68
71567;BME280;59403;47.456;19.120;2023-09-19T05:42:58;99823.28;;;20.33;99.65
71567;BME280;59403;47.456;19.120;2023-09-19T05:45:26;99816.59;;;20.35;99.47
71567;BME280;59403;47.456;19.120;2023-09-19T05:47:53;99816.25;;;20.31;99.15
71567;BME280;59403;47.456;19.120;2023-09-19T05:50:21;99824.69;;;20.23;99.00
71567;BME280;59403;47.456;19.120;2023-09-19T05:52:53;99825.16;;;20.20;99.71
71567;BME280;59403;47.456;19.120;2023-09-19T05:55:21;99818.00;;;20.26;99.37
71567;BME280;59403;47.456;19.120;2023-09-19T05:57:50;99820.00;;;20.30;98.54
71567;BME280;59403;47.456;19.120;2023-09-19T06:00:20;99827.03;;;20.43;97.99
71567;BME280;59403;47.456;19.120;2023-09-19T06:02:51;99837.44;;;20.40;98.23
71567;BME280;59403;47.456;19.120;2023-09-19T06:05:19;99830.41;;;20.39;97.84
71567;BME280;59403;47.456;19.120;2023-09-19T06:07:46;99833.22;;;20.32;97.85
71567;BME280;59403;47.456;19.120;2023-09-19T06:10:13;99824.91;;;20.33;97.94
71567;BME280;59403;47.456;19.120;2023-09-19T06:12:40;99833.59;;;20.24;98.22
71567;BME280;59403;47.456;19.120;2023-09-19T06:15:09;99842.88;;;20.10;98.60
71567;BME280;59403;47.456;19.120;2023-09-19T06:17:41;99838.91;;;20.12;98.31
71567;BME280;59403;47.456;19.120;2023-09-19T06:20:09;99836.09;;;20.07;98.00
71567;BME280;59403;47.456;19.120;2023-09-19T06:22:41;99846.47;;;20.04;98.25
71567;BME280;59403;47.456;19.120;2023-09-19T06:25:08;99843.78;;;20.04;97.71
71567;BME280;59403;47.456;19.120;2023-09-19T06:27:41;99849.16;;;19.92;98.60
71567;BME280;59403;47.456;19.120;2023-09-19T06:30:11;99844.94;;;19.96;98.85
71567;BME280;59403;47.456;19.120;2023-09-19T06:32:39;99848.94;;;19.94;99.20
71567;BME280;59403;47.456;19.120;2023-09-19T06:35:10;99869.47;;;19.88;99.06
71567;BME280;59403;47.456;19.120;2023-09-19T06:37:38;99861.41;;;19.88;99.69
71567;BME280;59403;47.456;19.120;2023-09-19T06:40:07;99864.69;;;19.90;99.62
71567;BME280;59403;47.456;19.120;2023-09-19T06:42:39;99871.22;;;19.83;100.00
71567;BME280;59403;47.456;19.120;2023-09-19T06:45:07;99865.69;;;19.78;99.56
71567;BME280;59403;47.456;19.120;2023-09-19T06:47:37;99874.00;;;19.76;100.00
71567;BME280;59403;47.456;19.120;2023-09-19T06:50:04;99873.28;;;19.69;100.00
71567;BME280;59403;47.456;19.120;2023-09-19T06:52:36;99878.28;;;19.66;100.00
71567;BME280;59403;47.456;19.120;2023-09-19T06:55:03;99870.56;;;19.58;100.00
71567;BME280;59403;47.456;19.120;2023-09-19T06:57:32;99879.28;;;19.53;100.00
71567;BME280;59403;47.456;19.120;2023-09-19T06:59:59;99879.87;;;19.55;100.00
71567;BME280;59403;47.456;19.120;2023-09-19T07:02:27;99892.72;;;19.53;100.00
71567;BME280;59403;47.456;19.120;2023-09-19T07:04:53;99894.66;;;19.46;100.00
71567;BME280;59403;47.456;19.120;2023-09-19T07:07:20;99901.03;;;19.34;100.00
71567;BME280;59403;47.456;19.120;2023-09-19T07:09:49;99903.50;;;19.35;100.00
71567;BME280;59403;47.456;19.120;2023-09-19T07:12:16;99915.63;;;19.19;100.00
71567;BME280;59403;47.456;19.120;2023-09-19T07:14:45;99918.06;;;19.03;100.00
71567;BME280;59403;47.456;19.120;2023-09-19T07:17:12;99928.81;;;18.85;100.00
71567;BME280;59403;47.456;19.120;2023-09-19T07:19:44;99938.03;;;18.89;100.00
71567;BME280;59403;47.456;19.120;2023-09-19T07:22:11;99931.66;;;18.90;100.00
71567;BME280;59403;47.456;19.120;2023-09-19T07:24:38;99933.94;;;18.86;100.00
71567;BME280;59403;47.456;19.120;2023-09-19T07:27:07;99939.69;;;18.90;100.00
71567;BME280;59403;47.456;19.120;2023-09-19T07:29:34;99945.44;;;18.93;100.00
71567;BME280;59403;47.456;19.120;2023-09-19T07:32:01;99945.84;;;18.90;100.00
71567;BME280;59403;47.456;19.120;2023-09-19T07:34:28;99948.28;;;18.98;100.00
71567;BME280;59403;47.456;19.120;2023-09-19T07:36:55;99942.38;;;18.90;100.00
71567;BME280;59403;47.456;19.120;2023-09-19T07:39:22;99944.22;;;18.89;100.00
71567;BME280;59403;47.456;19.120;2023-09-19T07:41:52;99938.78;;;18.96;100.00
71567;BME280;59403;47.456;19.120;2023-09-19T07:44:21;99951.94;;;19.04;100.00
71567;BME280;59403;47.456;19.120;2023-09-19T07:46:48;99948.44;;;19.03;100.00
71567;BME280;59403;47.456;19.120;2023-09-19T07:49:16;99953.72;;;19.10;100.00
71567;BME280;59403;47.456;19.120;2023-09-19T07:51:44;99965.81;;;19.19;100.00
71567;BME280;59403;47.456;19.120;2023-09-19T07:54:12;99980.63;;;19.03;100.00
71567;BME280;59403;47.456;19.120;2023-09-19T07:56:40;99971.53;;;18.86;100.00
71567;BME280;59403;47.456;19.120;2023-09-19T07:59:07;99986.13;;;18.90;100.00
71567;BME280;59403;47.456;19.120;2023-09-19T08:01:36;99979.50;;;18.93;100.00
71567;BME280;59403;47.456;19.120;2023-09-19T08:04:05;99988.66;;;18.85;100.00
71567;BME280;59403;47.456;19.120;2023-09-19T08:06:32;99994.47;;;18.82;100.00
71567;BME280;59403;47.456;19.120;2023-09-19T08:08:59;99991.47;;;18.90;100.00
71567;BME280;59403;47.456;19.120;2023-09-19T08:11:33;99994.72;;;18.99;100.00
71567;BME280;59403;47.456;19.120;2023-09-19T08:14:00;99989.94;;;19.01;100.00
71567;BME280;59403;47.456;19.120;2023-09-19T08:16:27;99995.97;;;18.96;100.00
71567;BME280;59403;47.456;19.120;2023-09-19T08:18:55;99992.06;;;18.99;100.00
71567;BME280;59403;47.456;19.120;2023-09-19T08:21:22;100000.41;;;19.09;100.00
71567;BME280;59403;47.456;19.120;2023-09-19T08:23:51;100006.66;;;19.03;100.00
71567;BME280;59403;47.456;19.120;2023-09-19T08:26:18;100010.94;;;19.10;100.00
71567;BME280;59403;47.456;19.120;2023-09-19T08:28:45;100011.91;;;19.16;100.00
71567;BME280;59403;47.456;19.120;2023-09-19T08:31:13;100015.62;;;19.15;100.00
71567;BME280;59403;47.456;19.120;2023-09-19T08:33:43;100010.03;;;19.16;100.00
71567;BME280;59403;47.456;19.120;2023-09-19T08:36:12;100022.66;;;19.16;100.00
71567;BME280;59403;47.456;19.120;2023-09-19T08:38:39;100017.75;;;19.06;100.00
71567;BME280;59403;47.456;19.120;2023-09-19T08:41:07;100029.50;;;19.12;100.00
71567;BME280;59403;47.456;19.120;2023-09-19T08:43:35;100030.94;;;19.14;100.00
71567;BME280;59403;47.456;19.120;2023-09-19T08:46:09;100037.69;;;19.17;100.00
71567;BME280;59403;47.456;19.120;2023-09-19T08:48:39;100042.44;;;19.21;100.00
71567;BME280;59403;47.456;19.120;2023-09-19T08:51:16;100055.28;;;19.13;100.00
71567;BME280;59403;47.456;19.120;2023-09-19T08:53:51;100049.59;;;19.03;100.00
71567;BME280;59403;47.456;19.120;2023-09-19T08:56:19;100068.63;;;19.01;100.00
71567;BME280;59403;47.456;19.120;2023-09-19T08:58:49;100081.03;;;18.96;100.00
71567;BME280;59403;47.456;19.120;2023-09-19T09:01:19;100086.31;;;18.84;100.00
71567;BME280;59403;47.456;19.120;2023-09-19T09:03:51;100083.12;;;18.69;100.00
71567;BME280;59403;47.456;19.120;2023-09-19T09:06:21;100076.47;;;18.72;100.00
71567;BME280;59403;47.456;19.120;2023-09-19T09:08:52;100080.31;;;18.82;100.00
71567;BME280;59403;47.456;19.120;2023-09-19T09:11:19;100083.97;;;18.63;100.00
71567;BME280;59403;47.456;19.120;2023-09-19T09:13:47;100079.22;;;18.65;100.00
71567;BME280;59403;47.456;19.120;2023-09-19T09:16:15;100077.03;;;18.80;100.00
71567;BME280;59403;47.456;19.120;2023-09-19T09:18:49;100069.31;;;18.90;100.00
71567;BME280;59403;47.456;19.120;2023-09-19T09:21:21;100067.41;;;18.97;100.00
71567;BME280;59403;47.456;19.120;2023-09-19T09:23:49;100040.13;;;19.00;100.00
71567;BME280;59403;47.456;19.120;2023-09-19T09:26:17;100021.28;;;19.07;100.00
71567;BME280;59403;47.456;19.120;2023-09-19T09:29:02;100005.56;;;19.10;100.00
71567;BME280;59403;47.456;19.120;2023-09-19T09:31:29;100001.94;;;19.41;100.00
71567;BME280;59403;47.456;19.120;2023-09-19T09:33:57;100010.69;;;19.55;100.00
71567;BME280;59403;47.456;19.120;2023-09-19T09:36:38;100002.63;;;19.73;100.00
71567;BME280;59403;47.456;19.120;2023-09-19T09:39:07;99993.94;;;19.89;100.00
71567;BME280;59403;47.456;19.120;2023-09-19T09:41:43;100003.22;;;19.93;100.00
71567;BME280;59403;47.456;19.120;2023-09-19T09:44:15;99998.16;;;19.67;100.00
71567;BME280;59403;47.456;19.120;2023-09-19T09:46:43;100002.91;;;19.83;100.00
71567;BME280;59403;47.456;19.120;2023-09-19T09:49:48;100016.09;;;19.84;100.00
71567;BME280;59403;47.456;19.120;2023-09-19T09:52:44;100027.69;;;19.85;100.00
71567;BME280;59403;47.456;19.120;2023-09-19T09:55:11;100053.31;;;19.69;100.00
71567;BME280;59403;47.456;19.120;2023-09-19T09:57:39;100055.41;;;19.85;100.00
71567;BME280;59403;47.456;19.120;2023-09-19T10:00:10;100058.22;;;19.90;100.00
71567;BME280;59403;47.456;19.120;2023-09-19T10:02:46;100044.94;;;19.77;100.00
71567;BME280;59403;47.456;19.120;2023-09-19T10:05:14;100037.78;;;19.71;100.00
71567;BME280;59403;47.456;19.120;2023-09-19T10:07:50;100048.75;;;19.70;100.00
71567;BME280;59403;47.456;19.120;2023-09-19T10:10:31;100047.84;;;19.94;100.00
71567;BME280;59403;47.456;19.120;2023-09-19T10:13:10;100047.91;;;20.23;100.00
71567;BME280;59403;47.456;19.120;2023-09-19T10:15:42;100048.88;;;20.29;100.00
71567;BME280;59403;47.456;19.120;2023-09-19T10:18:20;100057.66;;;20.36;100.00
71567;BME280;59403;47.456;19.120;2023-09-19T10:20:48;100059.91;;;20.21;100.00
71567;BME280;59403;47.456;19.120;2023-09-19T10:23:18;100044.84;;;20.02;100.00
71567;BME280;59403;47.456;19.120;2023-09-19T10:25:49;100040.84;;;19.93;100.00
71567;BME280;59403;47.456;19.120;2023-09-19T10:28:18;100045.66;;;20.02;100.00
71567;BME280;59403;47.456;19.120;2023-09-19T10:30:48;100049.56;;;20.06;100.00
71567;BME280;59403;47.456;19.120;2023-09-19T10:33:17;100057.53;;;20.13;100.00
71567;BME280;59403;47.456;19.120;2023-09-19T10:35:46;100065.97;;;19.98;100.00
71567;BME280;59403;47.456;19.120;2023-09-19T10:38:17;100070.03;;;19.89;100.00
71567;BME280;59403;47.456;19.120;2023-09-19T10:40:49;100067.41;;;20.01;100.00
71567;BME280;59403;47.456;19.120;2023-09-19T10:43:18;100066.56;;;20.00;100.00
71567;BME280;59403;47.456;19.120;2023-09-19T10:45:47;100077.78;;;19.97;100.00
71567;BME280;59403;47.456;19.120;2023-09-19T10:48:15;100072.56;;;20.02;100.00
71567;BME280;59403;47.456;19.120;2023-09-19T10:50:47;100065.81;;;20.11;100.00
71567;BME280;59403;47.456;19.120;2023-09-19T10:53:16;100070.69;;;20.21;100.00
71567;BME280;59403;47.456;19.120;2023-09-19T10:55:51;100076.34;;;20.31;100.00
71567;BME280;59403;47.456;19.120;2023-09-19T10:58:27;100077.75;;;20.33;100.00
71567;BME280;59403;47.456;19.120;2023-09-19T11:00:55;100079.12;;;20.24;100.00
71567;BME280;59403;47.456;19.120;2023-09-19T11:03:23;100091.06;;;20.28;100.00
71567;BME280;59403;47.456;19.120;2023-09-19T11:06:03;100077.72;;;20.22;100.00
71567;BME280;59403;47.456;19.120;2023-09-19T11:09:00;100084.84;;;20.28;100.00
71567;BME280;59403;47.456;19.120;2023-09-19T11:11:46;100088.97;;;20.12;100.00
71567;BME280;59403;47.456;19.120;2023-09-19T11:14:29;100094.09;;;20.20;100.00
71567;BME280;59403;47.456;19.120;2023-09-19T11:20:20;100093.41;;;20.55;100.00
71567;BME280;59403;47.456;19.120;2023-09-19T11:23:23;100101.06;;;21.10;100.00
71567;BME280;59403;47.456;19.120;2023-09-19T11:25:50;100103.09;;;21.26;100.00
71567;BME280;59403;47.456;19.120;2023-09-19T11:28:35;100093.47;;;21.30;100.00
71567;BME280;59403;47.456;19.120;2023-09-19T11:34:45;100083.59;;;21.71;100.00
71567;BME280;59403;47.456;19.120;2023-09-19T11:40:28;100094.28;;;22.28;100.00
71567;BME280;59403;47.456;19.120;2023-09-19T11:42:56;100101.69;;;22.61;100.00
71567;BME280;59403;47.456;19.120;2023-09-19T11:46:09;100091.03;;;22.55;99.60
71567;BME280;59403;47.456;19.120;2023-09-19T11:48:38;100085.84;;;22.53;91.63
71567;BME280;59403;47.456;19.120;2023-09-19T11:51:14;100078.56;;;22.53;90.02
71567;BME280;59403;47.456;19.120;2023-09-19T11:53:53;100079.81;;;22.34;92.43
71567;BME280;59403;47.456;19.120;2023-09-19T11:56:22;100074.00;;;21.98;91.74
71567;BME280;59403;47.456;19.120;2023-09-19T11:58:51;100066.25;;;21.90;92.91
71567;BME280;59403;47.456;19.120;2023-09-19T12:04:42;100070.03;;;22.45;89.29
71567;BME280;59403;47.456;19.120;2023-09-19T12:07:24;100073.06;;;22.77;84.67
71567;BME280;59403;47.456;19.120;2023-09-19T12:10:06;100066.66;;;23.11;85.77
71567;BME280;59403;47.456;19.120;2023-09-19T12:12:47;100069.09;;;22.96;91.87
71567;BME280;59403;47.456;19.120;2023-09-19T12:15:28;100074.53;;;22.39;87.57
71567;BME280;59403;47.456;19.120;2023-09-19T12:18:00;100069.84;;;22.35;90.34
71567;BME280;59403;47.456;19.120;2023-09-19T12:20:43;100061.94;;;22.57;89.13
71567;BME280;59403;47.456;19.120;2023-09-19T12:23:13;100067.63;;;23.05;87.58
71567;BME280;59403;47.456;19.120;2023-09-19T12:25:42;100059.75;;;23.03;88.29
71567;BME280;59403;47.456;19.120;2023-09-19T12:28:12;100062.03;;;23.11;88.13
71567;BME280;59403;47.456;19.120;2023-09-19T12:30:39;100057.63;;;23.38;86.36
71567;BME280;59403;47.456;19.120;2023-09-19T12:33:16;100061.69;;;23.57;84.29
71567;BME280;59403;47.456;19.120;2023-09-19T12:35:47;100065.06;;;23.48;80.19
71567;BME280;59403;47.456;19.120;2023-09-19T12:38:23;100075.84;;;23.65;84.02
71567;BME280;59403;47.456;19.120;2023-09-19T12:40:50;100067.63;;;23.38;84.29
71567;BME280;59403;47.456;19.120;2023-09-19T12:43:18;100072.84;;;23.11;84.07
71567;BME280;59403;47.456;19.120;2023-09-19T12:45:45;100070.47;;;23.15;84.17
71567;BME280;59403;47.456;19.120;2023-09-19T12:48:24;100078.84;;;23.46;83.41
71567;BME280;59403;47.456;19.120;2023-09-19T12:51:02;100077.75;;;23.47;83.71
71567;BME280;59403;47.456;19.120;2023-09-19T12:53:32;100073.78;;;23.33;80.77
71567;BME280;59403;47.456;19.120;2023-09-19T12:56:00;100077.28;;;23.50;80.24
71567;BME280;59403;47.456;19.120;2023-09-19T12:58:27;100078.41;;;23.54;81.46
71567;BME280;59403;47.456;19.120;2023-09-19T13:00:58;100079.94;;;23.67;80.22
71567;BME280;59403;47.456;19.120;2023-09-19T13:03:26;100079.22;;;23.55;79.89
71567;BME280;59403;47.456;19.120;2023-09-19T13:05:58;100087.66;;;23.25;80.32
71567;BME280;59403;47.456;19.120;2023-09-19T13:08:29;100084.63;;;23.22;81.54
71567;BME280;59403;47.456;19.120;2023-09-19T13:11:06;100078.38;;;23.33;80.54
71567;BME280;59403;47.456;19.120;2023-09-19T13:13:32;100079.47;;;23.37;81.00
71567;BME280;59403;47.456;19.120;2023-09-19T13:16:02;100084.97;;;23.25;81.06
71567;BME280;59403;47.456;19.120;2023-09-19T13:18:30;100070.66;;;23.41;80.93